Řízení letového provozu České republiky  
Aktualizace dat:  23.08.2017 08:05:10 UTC English version
   METEO Zobrazení stránky:  23.08.2017 08:08:41 UTC  
vysvětlivky
METAR COR EDDB 230750Z 28006KT 240V300 9999 FEW040 17/11 Q1019 NOSIG=
METAR EDDC 230750Z 26003KT 9999 FEW023 15/09 Q1020 NOSIG=
METAR EDDE 230750Z 05003KT 360V150 CAVOK 14/09 Q1020 NOSIG=
METAR EDDF 230750Z 06009KT CAVOK 18/11 Q1018 NOSIG=
METAR EDDM 230750Z 10003KT 070V130 CAVOK 15/12 Q1019 NOSIG=
METAR EDDN 230750Z 10004KT 040V140 CAVOK 17/12 Q1019 NOSIG=
METAR EDDP 230750Z VRB02KT CAVOK 17/11 Q1020 NOSIG=
METAR EDDT 230750Z 26005KT 9999 SCT043 16/11 Q1019 NOSIG=
METAR EDQM 230750Z VRB03KT CAVOK 15/10 Q1020=
METAR EPBY 230800Z 27006KT 9999 OVC003 14/13 Q1017 =
METAR EPGD 230800Z 34010KT 9999 FEW014 16/13 Q1016 =
METAR EPKK 230800Z 27010KT 230V300 9999 BKN020 15/10 Q1018 =
METAR EPKT 230800Z 31008KT 9999 SCT014 BKN022 15/11 Q1018 =
METAR EPLL 230800Z 28009KT 250V330 9999 BKN011 15/11 Q1017 =
METAR EPPO 230800Z 31008KT 270V340 9999 BKN008 14/12 Q1018 =
METAR EPRZ 230800Z 30010KT 260V330 9999 BKN016 14/10 Q1017 =
METAR EPWA 230800Z 29008KT 250V320 9999 OVC004 13/12 Q1016 BECMG BKN005=
METAR EPWR 230800Z 30011KT 9999 FEW025 16/10 Q1020 =
METAR LHBP 230800Z 29011KT 250V320 CAVOK 19/06 Q1019 NOSIG=
METAR LHSM 230745Z 32004KT CAVOK 19/10 Q1020 NOSIG=
METAR LKCV 230700Z VRB02KT CAVOK 13/09 Q1020 NOSIG=
METAR LKKB 230700Z 22003KT 140V290 CAVOK 13/09 Q1021 NOSIG =
METAR LKKU 230800Z VRB01KT 9999 FEW034 16/08 Q1020 RMK REG QNH 1017=
METAR LKKV 230800Z VRB03KT 9999 FEW030 14/07 Q1020=
METAR LKLN 230700Z AUTO VRB02KT CAVOK 11/08 Q1021=
METAR LKMT 230800Z 22006KT 190V250 9999 FEW017 14/10 Q1020 NOSIG=
METAR LKNA 230700Z 32005KT CAVOK 12/07 Q1020 NOSIG=
METAR LKPD 230700Z 25003KT 220V290 CAVOK 13/09 Q1020 NOSIG =
METAR LKPR 230800Z 26003KT 180V330 9999 FEW035 15/07 Q1020 NOSIG=
METAR LKTB 230800Z 35007KT 9999 FEW033 16/08 Q1020 NOSIG=
METAR LKVO 230800Z VRB02KT 9999 FEW028 17/09 Q1021=
METAR LOWI 230750Z VRB01KT 9999 FEW030 SCT150 18/12 Q1020 NOSIG=
METAR LOWL 230750Z 08005KT 050V120 CAVOK 16/10 Q1020 NOSIG=
METAR LOWS 230750Z 14006KT 110V170 9999 FEW070 BKN110 17/12 Q1019 NOSIG=
METAR LOWW 230750Z 35006KT 330V030 CAVOK 17/08 Q1020 NOSIG=
METAR LZIB 230800Z VRB08KT 9999 FEW037 19/06 Q1020 NOSIG=
METAR LZKZ 230800Z VRB03KT CAVOK 16/10 Q1018 NOSIG=
METAR LZPP 230800Z 33005KT 280V030 9999 FEW034 16/08 Q1020=
METAR LZSL 230800Z VRB02KT CAVOK 17/08 Q1019=
METAR LZTT 230800Z 26012KT 9999 FEW033 BKN053 12/07 Q1018 NOSIG=
METAR LZZI 230800Z VRB01KT 9999 FEW006 BKN063 11/09 Q1020=